Terminal Aerodrome Forecast
Issued by NWS

Home | Current Version | Previous Version | Text Only | Print | Product List | Glossary On
Versions: 1 2 3 4 5 6 7 8 9 10 11 12 13 14
349
FTUS43 KDVN 261730
TAFBRL
TAF
KBRL 261730Z 2618/2718 19009KT P6SM BKN150
     FM262100 19010KT P6SM VCTS BKN040CB
      TEMPO 2622/2701 3SM TSRA BKN030CB
     FM270100 VRB04KT 4SM TSRA OVC030CB
     FM270500 05006KT 6SM BR VCSH BKN025
     FM270900 08004KT 3SM BR BKN012
     FM271500 03007KT 6SM BR BKN030=

USA.gov is the U.S. government's official web portal to all federal, state and local government web resources and services.